sensor_id;sensor_type;location;lat;lon;timestamp;pressure;altitude;pressure_sealevel;temperature;humidity
17785;BME280;9016;53.582;10.062;2023-05-01T00:01:24;101954.88;;;10.51;52.11
17785;BME280;9016;53.582;10.062;2023-05-01T00:03:52;101949.72;;;10.47;52.70
17785;BME280;9016;53.582;10.062;2023-05-01T00:06:20;101948.44;;;10.55;52.63
17785;BME280;9016;53.582;10.062;2023-05-01T00:08:49;101953.84;;;10.54;52.58
17785;BME280;9016;53.582;10.062;2023-05-01T00:11:17;101948.53;;;10.54;52.42
17785;BME280;9016;53.582;10.062;2023-05-01T00:13:45;101937.19;;;10.49;52.34
17785;BME280;9016;53.582;10.062;2023-05-01T00:16:14;101943.94;;;10.57;52.60
17785;BME280;9016;53.582;10.062;2023-05-01T00:18:43;101941.78;;;10.45;52.91
17785;BME280;9016;53.582;10.062;2023-05-01T00:21:11;101940.41;;;10.35;53.42
17785;BME280;9016;53.582;10.062;2023-05-01T00:23:39;101940.16;;;10.41;52.99
17785;BME280;9016;53.582;10.062;2023-05-01T00:26:07;101928.31;;;10.48;53.25
17785;BME280;9016;53.582;10.062;2023-05-01T00:28:35;101933.53;;;10.51;52.95
17785;BME280;9016;53.582;10.062;2023-05-01T00:31:03;101923.94;;;10.47;52.87
17785;BME280;9016;53.582;10.062;2023-05-01T00:33:33;101919.03;;;10.37;53.21
17785;BME280;9016;53.582;10.062;2023-05-01T00:36:01;101921.22;;;10.27;53.84
17785;BME280;9016;53.582;10.062;2023-05-01T00:38:29;101909.63;;;10.28;53.74
17785;BME280;9016;53.582;10.062;2023-05-01T00:40:57;101915.81;;;10.29;53.73
17785;BME280;9016;53.582;10.062;2023-05-01T00:43:25;101913.91;;;10.32;53.69
17785;BME280;9016;53.582;10.062;2023-05-01T00:45:53;101901.56;;;10.30;53.46
17785;BME280;9016;53.582;10.062;2023-05-01T00:48:21;101914.03;;;10.29;53.40
17785;BME280;9016;53.582;10.062;2023-05-01T00:50:52;101907.09;;;10.25;53.78
17785;BME280;9016;53.582;10.062;2023-05-01T00:53:21;101906.28;;;10.23;53.91
17785;BME280;9016;53.582;10.062;2023-05-01T00:55:52;101899.56;;;10.13;54.21
17785;BME280;9016;53.582;10.062;2023-05-01T00:58:22;101903.03;;;10.15;54.08
17785;BME280;9016;53.582;10.062;2023-05-01T01:00:50;101897.94;;;10.09;54.88
17785;BME280;9016;53.582;10.062;2023-05-01T01:03:18;101893.88;;;10.22;53.90
17785;BME280;9016;53.582;10.062;2023-05-01T01:05:52;101892.31;;;10.17;54.27
17785;BME280;9016;53.582;10.062;2023-05-01T01:08:27;101892.53;;;10.12;54.70
17785;BME280;9016;53.582;10.062;2023-05-01T01:11:02;101883.31;;;9.97;55.25
17785;BME280;9016;53.582;10.062;2023-05-01T01:13:38;101891.78;;;10.07;54.76
17785;BME280;9016;53.582;10.062;2023-05-01T01:16:14;101892.91;;;10.01;54.58
17785;BME280;9016;53.582;10.062;2023-05-01T01:18:51;101890.13;;;10.05;54.85
17785;BME280;9016;53.582;10.062;2023-05-01T01:21:26;101886.28;;;9.90;55.49
17785;BME280;9016;53.582;10.062;2023-05-01T01:24:20;101884.28;;;9.95;55.36
17785;BME280;9016;53.582;10.062;2023-05-01T01:27:12;101889.03;;;9.87;55.30
17785;BME280;9016;53.582;10.062;2023-05-01T01:29:56;101884.59;;;9.87;55.35
17785;BME280;9016;53.582;10.062;2023-05-01T01:32:55;101882.13;;;9.83;55.74
17785;BME280;9016;53.582;10.062;2023-05-01T01:35:30;101877.03;;;9.77;55.55
17785;BME280;9016;53.582;10.062;2023-05-01T01:38:02;101879.78;;;9.74;55.45
17785;BME280;9016;53.582;10.062;2023-05-01T01:40:37;101878.59;;;9.82;55.28
17785;BME280;9016;53.582;10.062;2023-05-01T01:43:07;101879.25;;;9.87;54.81
17785;BME280;9016;53.582;10.062;2023-05-01T01:45:41;101874.91;;;9.85;55.06
17785;BME280;9016;53.582;10.062;2023-05-01T01:48:13;101875.94;;;9.82;55.20
17785;BME280;9016;53.582;10.062;2023-05-01T01:50:45;101876.91;;;9.80;55.14
17785;BME280;9016;53.582;10.062;2023-05-01T01:53:17;101867.88;;;9.84;55.24
17785;BME280;9016;53.582;10.062;2023-05-01T01:55:48;101868.09;;;9.78;55.50
17785;BME280;9016;53.582;10.062;2023-05-01T01:58:20;101860.03;;;9.81;55.03
17785;BME280;9016;53.582;10.062;2023-05-01T02:00:52;101865.44;;;9.78;55.05
17785;BME280;9016;53.582;10.062;2023-05-01T02:03:22;101861.94;;;9.77;55.72
17785;BME280;9016;53.582;10.062;2023-05-01T02:05:53;101864.94;;;9.68;55.80
17785;BME280;9016;53.582;10.062;2023-05-01T02:08:23;101855.09;;;9.70;55.89
17785;BME280;9016;53.582;10.062;2023-05-01T02:10:52;101855.81;;;9.52;56.62
17785;BME280;9016;53.582;10.062;2023-05-01T02:13:28;101855.59;;;9.58;56.43
17785;BME280;9016;53.582;10.062;2023-05-01T02:15:58;101848.69;;;9.53;56.10
17785;BME280;9016;53.582;10.062;2023-05-01T02:18:28;101850.13;;;9.61;56.45
17785;BME280;9016;53.582;10.062;2023-05-01T02:20:59;101859.28;;;9.54;55.89
17785;BME280;9016;53.582;10.062;2023-05-01T02:23:28;101847.44;;;9.40;56.66
17785;BME280;9016;53.582;10.062;2023-05-01T02:26:01;101846.34;;;9.45;56.73
17785;BME280;9016;53.582;10.062;2023-05-01T02:28:31;101847.88;;;9.51;56.55
17785;BME280;9016;53.582;10.062;2023-05-01T02:31:00;101842.84;;;9.43;56.44
17785;BME280;9016;53.582;10.062;2023-05-01T02:33:28;101830.50;;;9.42;56.02
17785;BME280;9016;53.582;10.062;2023-05-01T02:35:56;101833.09;;;9.44;56.46
17785;BME280;9016;53.582;10.062;2023-05-01T02:38:26;101824.97;;;9.47;57.08
17785;BME280;9016;53.582;10.062;2023-05-01T02:40:56;101821.50;;;9.45;57.05
17785;BME280;9016;53.582;10.062;2023-05-01T02:43:26;101821.50;;;9.45;56.27
17785;BME280;9016;53.582;10.062;2023-05-01T02:45:54;101815.38;;;9.43;56.24
17785;BME280;9016;53.582;10.062;2023-05-01T02:48:26;101821.69;;;9.40;56.67
17785;BME280;9016;53.582;10.062;2023-05-01T02:50:55;101826.44;;;9.32;57.32
17785;BME280;9016;53.582;10.062;2023-05-01T02:53:23;101816.53;;;9.36;57.13
17785;BME280;9016;53.582;10.062;2023-05-01T02:55:53;101815.72;;;9.34;56.79
17785;BME280;9016;53.582;10.062;2023-05-01T02:58:21;101815.78;;;9.32;57.06
17785;BME280;9016;53.582;10.062;2023-05-01T03:00:50;101810.00;;;9.21;57.96
17785;BME280;9016;53.582;10.062;2023-05-01T03:03:18;101809.94;;;9.23;57.50
17785;BME280;9016;53.582;10.062;2023-05-01T03:05:46;101806.25;;;9.27;57.77
17785;BME280;9016;53.582;10.062;2023-05-01T03:08:14;101800.81;;;9.30;57.47
17785;BME280;9016;53.582;10.062;2023-05-01T03:10:42;101797.31;;;9.29;57.42
17785;BME280;9016;53.582;10.062;2023-05-01T03:13:12;101795.41;;;9.33;57.31
17785;BME280;9016;53.582;10.062;2023-05-01T03:15:40;101797.13;;;9.34;57.15
17785;BME280;9016;53.582;10.062;2023-05-01T03:18:08;101797.19;;;9.32;57.10
17785;BME280;9016;53.582;10.062;2023-05-01T03:20:36;101795.50;;;9.30;56.86
17785;BME280;9016;53.582;10.062;2023-05-01T03:23:04;101792.34;;;9.20;57.58
17785;BME280;9016;53.582;10.062;2023-05-01T03:25:32;101791.41;;;9.21;57.59
17785;BME280;9016;53.582;10.062;2023-05-01T03:28:00;101794.06;;;9.21;57.45
17785;BME280;9016;53.582;10.062;2023-05-01T03:30:32;101786.28;;;9.17;57.00
17785;BME280;9016;53.582;10.062;2023-05-01T03:33:01;101779.44;;;9.10;57.57
17785;BME280;9016;53.582;10.062;2023-05-01T03:35:29;101774.00;;;9.13;57.06
17785;BME280;9016;53.582;10.062;2023-05-01T03:37:57;101773.72;;;9.20;56.95
17785;BME280;9016;53.582;10.062;2023-05-01T03:40:25;101773.81;;;9.17;56.93
17785;BME280;9016;53.582;10.062;2023-05-01T03:42:53;101766.19;;;9.08;57.54
17785;BME280;9016;53.582;10.062;2023-05-01T03:45:20;101765.09;;;9.14;57.03
17785;BME280;9016;53.582;10.062;2023-05-01T03:47:50;101772.25;;;9.12;57.56
17785;BME280;9016;53.582;10.062;2023-05-01T03:50:18;101759.16;;;9.07;57.42
17785;BME280;9016;53.582;10.062;2023-05-01T03:52:46;101759.72;;;9.15;56.73
17785;BME280;9016;53.582;10.062;2023-05-01T03:55:14;101756.25;;;9.13;57.42
17785;BME280;9016;53.582;10.062;2023-05-01T03:57:42;101764.22;;;9.13;57.14
17785;BME280;9016;53.582;10.062;2023-05-01T04:00:12;101754.53;;;9.12;57.45
17785;BME280;9016;53.582;10.062;2023-05-01T04:02:41;101753.78;;;9.09;57.94
17785;BME280;9016;53.582;10.062;2023-05-01T04:05:11;101751.78;;;9.14;57.85
17785;BME280;9016;53.582;10.062;2023-05-01T04:07:40;101752.31;;;9.23;57.45
17785;BME280;9016;53.582;10.062;2023-05-01T04:10:08;101749.53;;;9.26;57.13
17785;BME280;9016;53.582;10.062;2023-05-01T04:12:36;101750.53;;;9.24;57.23
17785;BME280;9016;53.582;10.062;2023-05-01T04:15:05;101742.94;;;9.13;57.66
17785;BME280;9016;53.582;10.062;2023-05-01T04:17:34;101733.88;;;9.19;58.03
17785;BME280;9016;53.582;10.062;2023-05-01T04:20:02;101740.72;;;9.26;57.79
17785;BME280;9016;53.582;10.062;2023-05-01T04:22:33;101730.00;;;9.27;57.44
17785;BME280;9016;53.582;10.062;2023-05-01T04:25:01;101733.53;;;9.28;57.77
17785;BME280;9016;53.582;10.062;2023-05-01T04:27:30;101731.84;;;9.25;58.22
17785;BME280;9016;53.582;10.062;2023-05-01T04:29:58;101729.72;;;9.35;57.47
17785;BME280;9016;53.582;10.062;2023-05-01T04:32:26;101727.16;;;9.32;57.54
17785;BME280;9016;53.582;10.062;2023-05-01T04:34:54;101728.91;;;9.33;57.63
17785;BME280;9016;53.582;10.062;2023-05-01T04:37:22;101724.75;;;9.26;57.24
17785;BME280;9016;53.582;10.062;2023-05-01T04:39:51;101721.97;;;9.29;58.11
17785;BME280;9016;53.582;10.062;2023-05-01T04:42:21;101724.19;;;9.39;57.70
17785;BME280;9016;53.582;10.062;2023-05-01T04:44:49;101722.28;;;9.43;57.73
17785;BME280;9016;53.582;10.062;2023-05-01T04:47:17;101719.38;;;9.49;57.25
17785;BME280;9016;53.582;10.062;2023-05-01T04:49:45;101722.53;;;9.58;57.00
17785;BME280;9016;53.582;10.062;2023-05-01T04:52:13;101719.13;;;9.55;57.25
17785;BME280;9016;53.582;10.062;2023-05-01T04:54:41;101722.78;;;9.52;56.55
17785;BME280;9016;53.582;10.062;2023-05-01T04:57:11;101719.13;;;9.55;56.43
17785;BME280;9016;53.582;10.062;2023-05-01T04:59:39;101720.53;;;9.63;56.62
17785;BME280;9016;53.582;10.062;2023-05-01T05:02:07;101711.19;;;9.75;56.46
17785;BME280;9016;53.582;10.062;2023-05-01T05:04:35;101711.13;;;9.76;55.61
17785;BME280;9016;53.582;10.062;2023-05-01T05:07:03;101718.66;;;9.87;55.38
17785;BME280;9016;53.582;10.062;2023-05-01T05:09:31;101715.97;;;9.88;55.38
17785;BME280;9016;53.582;10.062;2023-05-01T05:11:59;101715.88;;;9.90;55.73
17785;BME280;9016;53.582;10.062;2023-05-01T05:14:30;101723.88;;;9.90;55.60
17785;BME280;9016;53.582;10.062;2023-05-01T05:16:58;101725.13;;;10.01;55.21
17785;BME280;9016;53.582;10.062;2023-05-01T05:19:26;101714.75;;;10.17;54.80
17785;BME280;9016;53.582;10.062;2023-05-01T05:21:54;101717.97;;;10.25;54.38
17785;BME280;9016;53.582;10.062;2023-05-01T05:24:22;101713.34;;;10.29;54.02
17785;BME280;9016;53.582;10.062;2023-05-01T05:26:52;101719.19;;;10.37;54.63
17785;BME280;9016;53.582;10.062;2023-05-01T05:29:21;101718.75;;;10.47;53.89
17785;BME280;9016;53.582;10.062;2023-05-01T05:31:50;101716.59;;;10.55;53.25
17785;BME280;9016;53.582;10.062;2023-05-01T05:34:18;101717.53;;;10.54;53.04
17785;BME280;9016;53.582;10.062;2023-05-01T05:36:46;101713.00;;;10.56;53.28
17785;BME280;9016;53.582;10.062;2023-05-01T05:39:14;101708.25;;;10.63;53.42
17785;BME280;9016;53.582;10.062;2023-05-01T05:41:43;101705.41;;;10.67;52.66
17785;BME280;9016;53.582;10.062;2023-05-01T05:44:11;101699.50;;;10.79;53.15
17785;BME280;9016;53.582;10.062;2023-05-01T05:46:39;101696.09;;;10.76;52.39
17785;BME280;9016;53.582;10.062;2023-05-01T05:49:08;101697.44;;;10.86;52.67
17785;BME280;9016;53.582;10.062;2023-05-01T05:51:38;101694.25;;;10.96;52.43
17785;BME280;9016;53.582;10.062;2023-05-01T05:54:06;101695.19;;;10.95;52.58
17785;BME280;9016;53.582;10.062;2023-05-01T05:56:34;101696.63;;;11.03;52.19
17785;BME280;9016;53.582;10.062;2023-05-01T05:59:02;101699.94;;;11.08;51.95
17785;BME280;9016;53.582;10.062;2023-05-01T06:01:32;101700.03;;;11.06;51.43
17785;BME280;9016;53.582;10.062;2023-05-01T06:04:03;101693.47;;;10.94;51.11
17785;BME280;9016;53.582;10.062;2023-05-01T06:06:33;101687.59;;;11.05;51.78
17785;BME280;9016;53.582;10.062;2023-05-01T06:09:01;101684.66;;;11.11;50.70
17785;BME280;9016;53.582;10.062;2023-05-01T06:11:29;101686.19;;;11.17;50.81
17785;BME280;9016;53.582;10.062;2023-05-01T06:13:57;101677.09;;;11.21;50.92
17785;BME280;9016;53.582;10.062;2023-05-01T06:16:25;101681.91;;;11.31;50.97
17785;BME280;9016;53.582;10.062;2023-05-01T06:18:54;101671.44;;;11.45;50.71
17785;BME280;9016;53.582;10.062;2023-05-01T06:21:25;101671.53;;;11.61;50.82
17785;BME280;9016;53.582;10.062;2023-05-01T06:23:57;101674.47;;;11.73;49.48
17785;BME280;9016;53.582;10.062;2023-05-01T06:26:25;101669.56;;;11.83;49.86
17785;BME280;9016;53.582;10.062;2023-05-01T06:28:53;101674.28;;;11.95;48.68
17785;BME280;9016;53.582;10.062;2023-05-01T06:31:22;101669.97;;;12.10;48.72
17785;BME280;9016;53.582;10.062;2023-05-01T06:33:50;101660.38;;;12.23;48.18
17785;BME280;9016;53.582;10.062;2023-05-01T06:36:21;101665.31;;;12.30;48.35
17785;BME280;9016;53.582;10.062;2023-05-01T06:38:50;101661.09;;;12.42;47.84
17785;BME280;9016;53.582;10.062;2023-05-01T06:41:19;101662.28;;;12.36;47.23
17785;BME280;9016;53.582;10.062;2023-05-01T06:43:48;101654.19;;;12.38;47.04
17785;BME280;9016;53.582;10.062;2023-05-01T06:46:16;101659.06;;;12.47;46.74
17785;BME280;9016;53.582;10.062;2023-05-01T06:48:44;101647.44;;;13.12;46.42
17785;BME280;9016;53.582;10.062;2023-05-01T06:51:13;101635.16;;;14.98;41.97
17785;BME280;9016;53.582;10.062;2023-05-01T06:53:41;101632.38;;;16.94;37.87
17785;BME280;9016;53.582;10.062;2023-05-01T06:56:09;101626.50;;;18.64;35.50
17785;BME280;9016;53.582;10.062;2023-05-01T06:58:39;101618.50;;;19.81;33.74
17785;BME280;9016;53.582;10.062;2023-05-01T07:01:07;101618.00;;;20.69;31.11
17785;BME280;9016;53.582;10.062;2023-05-01T07:03:35;101611.22;;;21.34;29.81
17785;BME280;9016;53.582;10.062;2023-05-01T07:06:03;101614.28;;;21.88;29.23
17785;BME280;9016;53.582;10.062;2023-05-01T07:08:31;101615.28;;;22.52;28.44
17785;BME280;9016;53.582;10.062;2023-05-01T07:11:00;101605.41;;;23.25;28.39
17785;BME280;9016;53.582;10.062;2023-05-01T07:13:28;101600.16;;;23.41;26.88
17785;BME280;9016;53.582;10.062;2023-05-01T07:15:57;101608.34;;;23.76;26.67
17785;BME280;9016;53.582;10.062;2023-05-01T07:18:25;101594.19;;;23.73;26.06
17785;BME280;9016;53.582;10.062;2023-05-01T07:20:53;101597.53;;;24.02;25.79
17785;BME280;9016;53.582;10.062;2023-05-01T07:23:21;101585.69;;;24.62;25.29
17785;BME280;9016;53.582;10.062;2023-05-01T07:25:51;101587.38;;;24.89;24.70
17785;BME280;9016;53.582;10.062;2023-05-01T07:28:19;101580.97;;;25.06;23.83
17785;BME280;9016;53.582;10.062;2023-05-01T07:30:48;101574.06;;;24.86;23.89
17785;BME280;9016;53.582;10.062;2023-05-01T07:33:17;101585.75;;;25.62;23.50
17785;BME280;9016;53.582;10.062;2023-05-01T07:35:45;101575.19;;;25.17;24.02
17785;BME280;9016;53.582;10.062;2023-05-01T07:38:15;101574.47;;;25.89;23.64
17785;BME280;9016;53.582;10.062;2023-05-01T07:40:43;101576.53;;;25.71;23.03
17785;BME280;9016;53.582;10.062;2023-05-01T07:43:11;101569.84;;;25.97;23.23
17785;BME280;9016;53.582;10.062;2023-05-01T07:45:39;101562.56;;;26.77;23.16
17785;BME280;9016;53.582;10.062;2023-05-01T07:48:08;101557.66;;;27.03;22.63
17785;BME280;9016;53.582;10.062;2023-05-01T07:50:39;101551.97;;;26.74;21.99
17785;BME280;9016;53.582;10.062;2023-05-01T07:53:07;101552.81;;;26.66;21.79
17785;BME280;9016;53.582;10.062;2023-05-01T07:55:34;101548.56;;;26.72;22.15
17785;BME280;9016;53.582;10.062;2023-05-01T07:58:03;101552.16;;;27.42;22.08
17785;BME280;9016;53.582;10.062;2023-05-01T08:00:32;101544.69;;;27.27;21.61
17785;BME280;9016;53.582;10.062;2023-05-01T08:03:00;101538.06;;;27.67;21.53
17785;BME280;9016;53.582;10.062;2023-05-01T08:05:28;101540.53;;;27.39;21.73
17785;BME280;9016;53.582;10.062;2023-05-01T08:07:58;101536.38;;;27.66;21.11
17785;BME280;9016;53.582;10.062;2023-05-01T08:10:26;101534.66;;;27.20;21.23
17785;BME280;9016;53.582;10.062;2023-05-01T08:12:54;101539.75;;;27.54;21.30
17785;BME280;9016;53.582;10.062;2023-05-01T08:15:22;101542.53;;;27.46;21.84
17785;BME280;9016;53.582;10.062;2023-05-01T08:17:50;101545.53;;;27.59;20.94
17785;BME280;9016;53.582;10.062;2023-05-01T08:20:19;101546.47;;;28.11;21.33
17785;BME280;9016;53.582;10.062;2023-05-01T08:22:47;101538.72;;;28.29;20.95
17785;BME280;9016;53.582;10.062;2023-05-01T08:25:16;101545.06;;;28.29;20.60
17785;BME280;9016;53.582;10.062;2023-05-01T08:27:44;101533.44;;;28.42;20.69
17785;BME280;9016;53.582;10.062;2023-05-01T08:30:12;101529.09;;;28.77;20.66
17785;BME280;9016;53.582;10.062;2023-05-01T08:32:41;101526.88;;;28.87;20.22
17785;BME280;9016;53.582;10.062;2023-05-01T08:35:09;101536.59;;;27.65;21.23
17785;BME280;9016;53.582;10.062;2023-05-01T08:37:37;101536.63;;;27.79;21.66
17785;BME280;9016;53.582;10.062;2023-05-01T08:40:07;101530.75;;;27.82;21.46
17785;BME280;9016;53.582;10.062;2023-05-01T08:42:37;101530.50;;;28.44;21.28
17785;BME280;9016;53.582;10.062;2023-05-01T08:45:07;101520.75;;;28.99;21.15
17785;BME280;9016;53.582;10.062;2023-05-01T08:47:36;101520.13;;;29.18;19.97
17785;BME280;9016;53.582;10.062;2023-05-01T08:50:08;101516.53;;;28.68;20.21
17785;BME280;9016;53.582;10.062;2023-05-01T08:52:40;101509.91;;;28.77;20.58
17785;BME280;9016;53.582;10.062;2023-05-01T08:55:11;101512.75;;;29.19;20.48
17785;BME280;9016;53.582;10.062;2023-05-01T08:57:45;101513.25;;;29.44;19.52
17785;BME280;9016;53.582;10.062;2023-05-01T09:00:16;101502.50;;;28.92;19.99
17785;BME280;9016;53.582;10.062;2023-05-01T09:02:47;101502.44;;;28.71;20.66
17785;BME280;9016;53.582;10.062;2023-05-01T09:05:17;101502.34;;;28.64;20.60
17785;BME280;9016;53.582;10.062;2023-05-01T09:07:46;101494.56;;;29.03;20.89
17785;BME280;9016;53.582;10.062;2023-05-01T09:10:15;101493.63;;;29.11;20.91
17785;BME280;9016;53.582;10.062;2023-05-01T09:12:48;101494.13;;;29.36;20.75
17785;BME280;9016;53.582;10.062;2023-05-01T09:15:21;101490.34;;;29.15;19.97
17785;BME280;9016;53.582;10.062;2023-05-01T09:17:53;101484.97;;;29.28;20.55
17785;BME280;9016;53.582;10.062;2023-05-01T09:20:21;101478.19;;;29.10;19.33
17785;BME280;9016;53.582;10.062;2023-05-01T09:22:52;101480.00;;;29.17;19.88
17785;BME280;9016;53.582;10.062;2023-05-01T09:25:22;101475.72;;;28.94;19.90
17785;BME280;9016;53.582;10.062;2023-05-01T09:27:52;101461.72;;;28.74;19.47
17785;BME280;9016;53.582;10.062;2023-05-01T09:30:30;101473.66;;;28.52;20.33
17785;BME280;9016;53.582;10.062;2023-05-01T09:33:08;101472.81;;;28.22;20.39
17785;BME280;9016;53.582;10.062;2023-05-01T09:35:50;101465.28;;;27.73;21.26
17785;BME280;9016;53.582;10.062;2023-05-01T09:38:20;101469.34;;;26.86;21.30
17785;BME280;9016;53.582;10.062;2023-05-01T09:40:48;101471.44;;;26.37;21.60
17785;BME280;9016;53.582;10.062;2023-05-01T09:43:28;101465.91;;;25.18;22.64
17785;BME280;9016;53.582;10.062;2023-05-01T09:46:01;101465.38;;;24.15;24.13
17785;BME280;9016;53.582;10.062;2023-05-01T09:48:31;101463.09;;;23.85;25.00
17785;BME280;9016;53.582;10.062;2023-05-01T09:51:19;101458.09;;;23.73;24.79
17785;BME280;9016;53.582;10.062;2023-05-01T09:53:47;101460.72;;;23.39;24.45
17785;BME280;9016;53.582;10.062;2023-05-01T09:56:15;101455.22;;;23.31;26.00
17785;BME280;9016;53.582;10.062;2023-05-01T09:58:45;101456.28;;;22.85;25.39
17785;BME280;9016;53.582;10.062;2023-05-01T10:01:13;101447.00;;;22.78;26.15
17785;BME280;9016;53.582;10.062;2023-05-01T10:03:42;101460.16;;;22.83;26.24
17785;BME280;9016;53.582;10.062;2023-05-01T10:06:25;101455.66;;;22.91;26.24
17785;BME280;9016;53.582;10.062;2023-05-01T10:09:01;101442.94;;;23.09;26.25
17785;BME280;9016;53.582;10.062;2023-05-01T10:11:47;101448.69;;;22.61;26.02
17785;BME280;9016;53.582;10.062;2023-05-01T10:14:17;101436.25;;;22.69;26.07
17785;BME280;9016;53.582;10.062;2023-05-01T10:16:47;101441.56;;;22.78;27.35
17785;BME280;9016;53.582;10.062;2023-05-01T10:19:19;101434.91;;;22.73;26.11
17785;BME280;9016;53.582;10.062;2023-05-01T10:21:47;101433.22;;;23.07;26.59
17785;BME280;9016;53.582;10.062;2023-05-01T10:24:15;101432.13;;;22.82;25.63
17785;BME280;9016;53.582;10.062;2023-05-01T10:26:47;101428.56;;;22.82;26.78
17785;BME280;9016;53.582;10.062;2023-05-01T10:29:18;101431.97;;;23.01;26.75
17785;BME280;9016;53.582;10.062;2023-05-01T10:31:51;101421.56;;;23.32;26.10
17785;BME280;9016;53.582;10.062;2023-05-01T10:34:20;101419.53;;;23.34;26.31
17785;BME280;9016;53.582;10.062;2023-05-01T10:36:57;101412.63;;;23.22;24.51
17785;BME280;9016;53.582;10.062;2023-05-01T10:39:31;101412.16;;;23.09;24.99
17785;BME280;9016;53.582;10.062;2023-05-01T10:42:00;101412.94;;;22.84;26.21
17785;BME280;9016;53.582;10.062;2023-05-01T10:44:31;101403.69;;;22.77;25.41
17785;BME280;9016;53.582;10.062;2023-05-01T10:50:04;101397.94;;;22.35;26.29
17785;BME280;9016;53.582;10.062;2023-05-01T10:55:41;101387.53;;;22.03;25.68
17785;BME280;9016;53.582;10.062;2023-05-01T10:58:13;101383.22;;;22.10;26.86
17785;BME280;9016;53.582;10.062;2023-05-01T11:03:51;101377.63;;;22.12;26.23
17785;BME280;9016;53.582;10.062;2023-05-01T11:06:20;101372.56;;;21.99;25.80
17785;BME280;9016;53.582;10.062;2023-05-01T11:08:48;101361.00;;;21.97;25.54
17785;BME280;9016;53.582;10.062;2023-05-01T11:11:45;101365.41;;;22.25;26.76
17785;BME280;9016;53.582;10.062;2023-05-01T11:14:16;101357.56;;;21.95;26.08
17785;BME280;9016;53.582;10.062;2023-05-01T11:16:45;101354.66;;;22.06;26.31
17785;BME280;9016;53.582;10.062;2023-05-01T11:19:44;101363.94;;;22.13;25.22
17785;BME280;9016;53.582;10.062;2023-05-01T11:22:16;101356.34;;;22.17;25.97
17785;BME280;9016;53.582;10.062;2023-05-01T11:24:45;101356.16;;;22.18;25.78
17785;BME280;9016;53.582;10.062;2023-05-01T11:27:14;101350.44;;;22.21;26.15
17785;BME280;9016;53.582;10.062;2023-05-01T11:29:45;101353.47;;;22.18;26.33
17785;BME280;9016;53.582;10.062;2023-05-01T11:32:23;101345.47;;;22.17;26.92
17785;BME280;9016;53.582;10.062;2023-05-01T11:34:53;101351.44;;;22.20;26.44
17785;BME280;9016;53.582;10.062;2023-05-01T11:37:40;101335.41;;;22.00;25.33
17785;BME280;9016;53.582;10.062;2023-05-01T11:40:19;101335.06;;;21.85;25.56
17785;BME280;9016;53.582;10.062;2023-05-01T11:42:48;101327.91;;;21.84;25.68
17785;BME280;9016;53.582;10.062;2023-05-01T11:45:18;101318.19;;;21.91;26.46
17785;BME280;9016;53.582;10.062;2023-05-01T11:47:47;101315.78;;;21.42;24.61
17785;BME280;9016;53.582;10.062;2023-05-01T11:50:16;101325.53;;;21.25;25.08
17785;BME280;9016;53.582;10.062;2023-05-01T11:52:44;101312.72;;;21.18;25.61
17785;BME280;9016;53.582;10.062;2023-05-01T11:55:15;101311.16;;;21.15;26.41
17785;BME280;9016;53.582;10.062;2023-05-01T11:57:47;101297.19;;;21.10;25.16
17785;BME280;9016;53.582;10.062;2023-05-01T12:00:25;101311.97;;;21.25;26.44
17785;BME280;9016;53.582;10.062;2023-05-01T12:03:00;101306.03;;;21.49;25.92
17785;BME280;9016;53.582;10.062;2023-05-01T12:05:29;101298.06;;;21.47;25.51
17785;BME280;9016;53.582;10.062;2023-05-01T12:08:09;101291.75;;;21.56;25.82
17785;BME280;9016;53.582;10.062;2023-05-01T12:10:38;101296.03;;;21.59;26.04
17785;BME280;9016;53.582;10.062;2023-05-01T12:13:08;101293.63;;;21.56;25.22
17785;BME280;9016;53.582;10.062;2023-05-01T12:15:38;101290.41;;;21.43;26.54
17785;BME280;9016;53.582;10.062;2023-05-01T12:18:07;101288.31;;;21.18;26.65
17785;BME280;9016;53.582;10.062;2023-05-01T12:20:37;101281.69;;;21.39;27.09
17785;BME280;9016;53.582;10.062;2023-05-01T12:23:06;101283.53;;;21.48;26.38
17785;BME280;9016;53.582;10.062;2023-05-01T12:25:36;101277.91;;;21.59;26.73
17785;BME280;9016;53.582;10.062;2023-05-01T12:28:09;101276.69;;;21.44;26.09
17785;BME280;9016;53.582;10.062;2023-05-01T12:30:37;101286.09;;;21.40;26.59
17785;BME280;9016;53.582;10.062;2023-05-01T12:33:12;101279.97;;;21.38;26.34
17785;BME280;9016;53.582;10.062;2023-05-01T12:35:41;101287.16;;;21.30;26.65
17785;BME280;9016;53.582;10.062;2023-05-01T12:38:12;101283.34;;;21.23;26.49
17785;BME280;9016;53.582;10.062;2023-05-01T12:40:50;101274.50;;;20.92;26.94
17785;BME280;9016;53.582;10.062;2023-05-01T12:43:20;101275.25;;;21.04;27.19
17785;BME280;9016;53.582;10.062;2023-05-01T12:45:52;101278.09;;;20.93;27.15
17785;BME280;9016;53.582;10.062;2023-05-01T12:48:22;101273.94;;;20.89;27.81
17785;BME280;9016;53.582;10.062;2023-05-01T12:50:51;101262.56;;;21.04;28.32
17785;BME280;9016;53.582;10.062;2023-05-01T12:53:21;101264.03;;;21.26;28.07
17785;BME280;9016;53.582;10.062;2023-05-01T12:55:51;101257.38;;;21.47;27.66
17785;BME280;9016;53.582;10.062;2023-05-01T12:58:20;101251.72;;;21.68;27.48
17785;BME280;9016;53.582;10.062;2023-05-01T13:00:50;101250.41;;;21.72;27.21
17785;BME280;9016;53.582;10.062;2023-05-01T13:03:25;101251.22;;;21.82;27.59
17785;BME280;9016;53.582;10.062;2023-05-01T13:05:55;101245.38;;;21.77;26.91
17785;BME280;9016;53.582;10.062;2023-05-01T13:08:28;101240.25;;;21.84;26.88
17785;BME280;9016;53.582;10.062;2023-05-01T13:10:59;101249.88;;;21.96;27.73
17785;BME280;9016;53.582;10.062;2023-05-01T13:13:29;101233.75;;;21.67;26.29
17785;BME280;9016;53.582;10.062;2023-05-01T13:16:05;101228.84;;;21.80;27.20
17785;BME280;9016;53.582;10.062;2023-05-01T13:18:44;101231.03;;;21.94;26.61